Terminal Aerodrome Forecast
Issued by NWS Pendleton, OR

Home | Current Version | Previous Version | Text Only | Print | Product List | Glossary On
Versions: 1 2 3 4 5 6 7 8 9 10 11 12 13 14 15 16 17 18 19 20 21 22 23 24 25 26 27 28
788
FTUS46 KPDT 241338 AAC
TAFPDT
TAF AMD
KPDT 241338Z 2414/2512 VRB05KT P6SM -RA BKN040 OVC060
      TEMPO 2414/2418 5SM -RA BR
     FM241800 16008KT P6SM -RA SCT035 OVC050
     FM242100 22010KT P6SM -RA SCT022 OVC035
     FM250000 25008KT P6SM VCSH OVC080
     FM250600 VRB05KT P6SM OVC100=

USA.gov is the U.S. government's official web portal to all federal, state and local government web resources and services.